Time;durP1;ratioP1;P1;durP2;ratioP2;P2;SDS_P1;SDS_P2;PMS_P1;PMS_P2;Temp;Humidity;BMP_temperature;BMP_pressure;BME280_temperature;BME280_humidity;BME280_pressure;Samples;Min_cycle;Max_cycle;Signal;HPM_P1;HPM_P2
2023/03/10 00:02:19;;;;;;;16.57;12.70;;;;;;;13.19;66.58;98708.34;5079608;28;20178;-55
2023/03/10 00:04:50;;;;;;;15.37;13.27;;;;;;;13.24;66.94;98724.66;5080385;28;20192;-56
2023/03/10 00:07:17;;;;;;;16.03;12.63;;;;;;;13.11;65.71;98696.38;5098387;28;20179;-56
2023/03/10 00:09:43;;;;;;;18.90;14.47;;;;;;;13.22;65.94;98739.28;5097670;28;20184;-56
2023/03/10 00:12:10;;;;;;;16.97;13.80;;;;;;;13.06;66.56;98745.38;5098650;28;20172;-55
2023/03/10 00:14:38;;;;;;;21.50;14.20;;;;;;;12.94;67.12;98719.66;5098721;28;20164;-56
2023/03/10 00:17:05;;;;;;;19.53;14.13;;;;;;;13.06;66.82;98722.16;5099135;28;20191;-56
2023/03/10 00:19:33;;;;;;;18.17;14.10;;;;;;;13.15;66.48;98713.56;5098787;28;20190;-56
2023/03/10 00:22:01;;;;;;;20.37;13.60;;;;;;;13.11;66.27;98722.16;5094746;28;20174;-55
2023/03/10 00:24:28;;;;;;;17.27;13.73;;;;;;;12.80;68.60;98713.75;5099042;28;20185;-56
2023/03/10 00:26:54;;;;;;;22.33;13.33;;;;;;;12.74;68.98;98703.47;5098986;28;20227;-55
2023/03/10 00:29:21;;;;;;;19.17;14.80;;;;;;;12.69;69.04;98703.47;5098951;28;20167;-55
2023/03/10 00:31:48;;;;;;;24.63;16.90;;;;;;;12.56;70.16;98706.97;5099033;28;20179;-55
2023/03/10 00:34:15;;;;;;;27.77;17.20;;;;;;;12.36;71.10;98701.88;5098740;28;20175;-55
2023/03/10 00:36:43;;;;;;;20.73;16.07;;;;;;;12.36;71.47;98711.38;5098739;28;20191;-55
2023/03/10 00:39:10;;;;;;;21.77;16.63;;;;;;;12.34;72.35;98713.94;5098603;28;20217;-56
2023/03/10 00:41:38;;;;;;;22.83;16.93;;;;;;;12.29;72.41;98713.09;5098708;28;20175;-55
2023/03/10 00:44:08;;;;;;;26.37;17.90;;;;;;;12.29;72.77;98707.94;5098695;28;20206;-55
2023/03/10 00:46:37;;;;;;;23.87;18.03;;;;;;;12.35;72.63;98713.06;5098647;28;20176;-56
2023/03/10 00:49:04;;;;;;;22.17;16.57;;;;;;;12.40;72.12;98716.50;5098679;28;20249;-55
2023/03/10 00:51:31;;;;;;;25.70;17.23;;;;;;;12.44;71.83;98717.34;5098554;28;20167;-55
2023/03/10 00:54:01;;;;;;;19.80;17.23;;;;;;;12.51;71.87;98718.16;5098371;28;20231;-55
2023/03/10 00:56:29;;;;;;;24.45;18.10;;;;;;;12.55;71.30;98714.72;5098098;28;20483;-56
2023/03/10 00:58:57;;;;;;;25.27;17.70;;;;;;;12.58;71.33;98706.97;5098318;28;20174;-55
2023/03/10 01:01:25;;;;;;;24.07;18.20;;;;;;;12.62;71.81;98708.66;5098144;28;20483;-56
2023/03/10 01:03:54;;;;;;;22.57;17.80;;;;;;;12.66;71.61;98715.53;5098386;28;20446;-55
2023/03/10 01:06:22;;;;;;;22.37;17.47;;;;;;;12.69;71.17;98710.38;5098049;28;20176;-54
2023/03/10 01:08:49;;;;;;;23.67;17.37;;;;;;;12.56;71.28;98690.66;5098276;28;20166;-54
2023/03/10 01:11:20;;;;;;;24.07;16.70;;;;;;;12.66;71.09;98710.38;5098290;28;20234;-54
2023/03/10 01:13:47;;;;;;;22.80;16.70;;;;;;;12.63;71.21;98711.25;5097997;28;20200;-55
2023/03/10 01:16:14;;;;;;;25.50;17.57;;;;;;;12.54;71.29;98697.53;5098028;28;20171;-54
2023/03/10 01:18:42;;;;;;;24.37;17.83;;;;;;;11.96;70.96;98599.91;5098013;28;20171;-54
2023/03/10 01:21:16;;;;;;;21.50;17.50;;;;;;;12.59;71.07;98706.09;5097854;28;20240;-54
2023/03/10 01:23:42;;;;;;;23.33;16.63;;;;;;;12.62;70.81;98706.09;5097737;28;20173;-54
2023/03/10 01:26:09;;;;;;;22.60;16.33;;;;;;;12.66;70.31;98703.47;5097977;28;20178;-54
2023/03/10 01:28:37;;;;;;;24.88;18.80;;;;;;;12.67;70.87;98699.19;5096961;28;20413;-54
2023/03/10 01:31:06;;;;;;;21.30;16.70;;;;;;;12.70;70.71;98700.03;5097861;28;20190;-54
2023/03/10 01:33:33;;;;;;;23.13;16.10;;;;;;;12.60;70.68;98675.19;5097940;28;20208;-54
2023/03/10 01:36:00;;;;;;;22.73;15.93;;;;;;;12.66;70.55;98700.06;5097824;28;20172;-54
2023/03/10 01:38:27;;;;;;;25.60;16.60;;;;;;;12.64;71.31;98701.78;5097713;28;20324;-54
2023/03/10 01:40:54;;;;;;;26.10;17.07;;;;;;;12.61;71.42;98697.50;5097707;28;20249;-55
2023/03/10 01:43:30;;;;;;;24.53;16.33;;;;;;;12.52;71.49;98692.41;5097958;28;20175;-54
2023/03/10 01:46:45;;;;;;;24.43;17.03;;;;;;;12.50;71.88;98703.56;5097973;28;20168;-54
2023/03/10 01:49:33;;;;;;;21.93;17.23;;;;;;;12.43;71.55;98695.88;5097722;28;20185;-54
2023/03/10 01:52:05;;;;;;;21.87;16.33;;;;;;;12.31;72.22;98700.19;5097466;28;20206;-55
2023/03/10 01:54:40;;;;;;;22.63;15.97;;;;;;;12.29;72.33;98696.78;5097646;28;20202;-54
2023/03/10 01:57:08;;;;;;;22.80;16.80;;;;;;;12.39;71.62;98694.16;5097452;28;20199;-54
2023/03/10 01:59:35;;;;;;;25.35;18.55;;;;;;;12.48;71.49;98698.41;5096679;28;20424;-54
2023/03/10 02:02:04;;;;;;;20.83;16.87;;;;;;;12.59;70.67;98688.91;5097592;28;20192;-54
2023/03/10 02:04:38;;;;;;;27.43;16.57;;;;;;;12.60;70.43;98695.81;5097416;28;20171;-54
2023/03/10 02:07:06;;;;;;;22.40;16.87;;;;;;;12.42;70.32;98660.66;5097773;28;20167;-55
2023/03/10 02:09:37;;;;;;;23.27;16.40;;;;;;;12.57;70.81;98693.22;5097682;28;20196;-54
2023/03/10 02:12:04;;;;;;;22.67;17.50;;;;;;;12.53;70.58;98682.94;5097602;28;20172;-54
2023/03/10 02:14:33;;;;;;;28.00;17.43;;;;;;;12.52;70.71;98688.97;5097620;28;20167;-54
2023/03/10 02:17:00;;;;;;;30.23;16.63;;;;;;;12.54;71.06;98694.97;5097592;28;20196;-54
2023/03/10 02:19:37;;;;;;;20.70;16.87;;;;;;;12.51;70.96;98698.41;5097604;28;20173;-55
2023/03/10 02:22:07;;;;;;;25.30;16.67;;;;;;;12.36;71.39;98694.16;5083962;28;20250;-55
2023/03/10 02:24:43;;;;;;;26.17;17.10;;;;;;;12.34;72.17;98708.78;5097573;28;20172;-54
2023/03/10 02:27:21;;;;;;;25.23;17.10;;;;;;;12.30;72.23;98704.50;5115807;28;20232;-54
2023/03/10 02:29:53;;;;;;;22.53;17.13;;;;;;;12.21;72.89;98709.69;5117848;28;20200;-54
2023/03/10 02:32:21;;;;;;;26.43;17.07;;;;;;;12.23;72.51;98707.09;5120101;28;20175;-54
2023/03/10 02:34:48;;;;;;;23.00;16.40;;;;;;;12.27;72.40;98708.81;5121840;28;20169;-54
2023/03/10 02:37:20;;;;;;;31.10;17.90;;;;;;;12.19;72.86;98685.66;5119148;28;20198;-54
2023/03/10 02:39:47;;;;;;;24.97;17.63;;;;;;;12.34;72.35;98707.91;5101393;28;20214;-54
2023/03/10 02:42:16;;;;;;;24.47;17.83;;;;;;;12.35;72.34;98704.50;5090299;28;20206;-54
2023/03/10 02:44:44;;;;;;;21.57;17.63;;;;;;;12.32;72.42;98717.38;5081032;28;20191;-54
2023/03/10 02:47:11;;;;;;;26.43;18.47;;;;;;;12.29;73.29;98719.97;5081173;28;20182;-54
2023/03/10 02:49:39;;;;;;;23.00;17.90;;;;;;;12.08;73.58;98736.34;5081148;28;20198;-54
2023/03/10 02:52:12;;;;;;;23.03;18.13;;;;;;;12.06;73.75;98732.88;5081049;28;20270;-55
2023/03/10 02:54:38;;;;;;;22.03;18.00;;;;;;;12.08;73.86;98732.91;5081073;28;20170;-54
2023/03/10 02:57:05;;;;;;;25.93;18.17;;;;;;;11.98;74.13;98726.88;5080919;28;20196;-54
2023/03/10 02:59:33;;;;;;;23.93;18.17;;;;;;;11.93;74.53;98736.34;5080973;28;20176;-55
2023/03/10 03:02:00;;;;;;;23.87;18.03;;;;;;;11.74;75.84;98729.50;5080934;28;20164;-54
2023/03/10 03:04:27;;;;;;;30.53;18.67;;;;;;;11.69;75.57;98729.50;5080876;28;20176;-53
2023/03/10 03:06:54;;;;;;;23.17;19.10;;;;;;;11.56;76.71;98739.78;5080810;28;20184;-54
2023/03/10 03:09:21;;;;;;;22.53;17.50;;;;;;;11.41;77.15;98744.91;5080252;28;20222;-54
2023/03/10 03:11:48;;;;;;;25.87;17.20;;;;;;;10.44;78.76;98665.88;5080702;28;20231;-54
2023/03/10 03:14:15;;;;;;;21.77;17.27;;;;;;;10.88;79.65;98734.50;5080632;28;20176;-54
2023/03/10 03:16:43;;;;;;;25.07;16.37;;;;;;;10.94;80.33;98748.25;5080524;28;20181;-54
2023/03/10 03:19:09;;;;;;;22.73;16.10;;;;;;;11.01;80.08;98742.28;5080474;28;20281;-54
2023/03/10 03:21:36;;;;;;;21.67;16.83;;;;;;;11.01;80.14;98731.16;5080155;28;20176;-54
2023/03/10 03:24:03;;;;;;;20.83;17.27;;;;;;;11.01;80.08;98733.72;5089619;28;20193;-54
2023/03/10 03:26:30;;;;;;;25.37;16.17;;;;;;;10.94;79.93;98730.25;5100432;28;20172;-54
2023/03/10 03:28:57;;;;;;;21.37;15.90;;;;;;;10.88;80.06;98725.09;5100172;28;20213;-55
2023/03/10 03:31:25;;;;;;;22.57;15.87;;;;;;;10.76;80.98;98734.50;5100134;28;20178;-55
2023/03/10 03:33:53;;;;;;;23.35;18.30;;;;;;;10.80;81.47;98723.34;5098910;28;20503;-55
2023/03/10 03:36:20;;;;;;;18.53;16.07;;;;;;;10.68;81.66;98725.03;5100175;28;20180;-55
2023/03/10 03:38:46;;;;;;;17.17;15.37;;;;;;;10.72;81.93;98732.75;5099988;28;20252;-55
2023/03/10 03:41:13;;;;;;;21.43;15.73;;;;;;;10.68;81.80;98715.63;5100015;28;20183;-55
2023/03/10 03:43:40;;;;;;;20.90;15.77;;;;;;;10.70;81.75;98719.91;5099183;28;20164;-55
2023/03/10 03:46:07;;;;;;;20.63;15.70;;;;;;;10.65;82.69;98722.47;5099603;28;20184;-55
2023/03/10 03:48:34;;;;;;;21.33;16.20;;;;;;;10.84;81.79;98722.53;5099844;28;20179;-55
2023/03/10 03:51:02;;;;;;;22.30;15.63;;;;;;;10.92;81.17;98726.84;5099984;28;20181;-55
2023/03/10 03:53:30;;;;;;;21.57;16.70;;;;;;;10.96;80.80;98731.09;5100148;28;20206;-55
2023/03/10 03:55:56;;;;;;;19.93;15.20;;;;;;;11.08;80.77;98727.72;5099522;28;20171;-54
2023/03/10 03:58:23;;;;;;;17.40;14.90;;;;;;;11.16;79.92;98726.88;5099719;28;20222;-54
2023/03/10 04:00:50;;;;;;;17.57;14.50;;;;;;;11.22;79.94;98726.03;5099807;28;20198;-55
2023/03/10 04:03:17;;;;;;;21.88;15.40;;;;;;;11.29;79.69;98732.88;5099408;28;20414;-54
2023/03/10 04:05:44;;;;;;;21.37;15.30;;;;;;;11.33;79.05;98728.59;5099496;28;20171;-54
2023/03/10 04:08:14;;;;;;;18.47;14.97;;;;;;;11.43;78.82;98725.16;5099566;28;20176;-55
2023/03/10 04:10:40;;;;;;;19.67;14.63;;;;;;;11.49;78.57;98722.59;5099530;28;20168;-56
2023/03/10 04:13:07;;;;;;;19.17;15.63;;;;;;;11.47;78.78;98714.03;5099315;28;20188;-54
2023/03/10 04:15:35;;;;;;;18.37;15.20;;;;;;;11.51;78.74;98718.34;5099633;28;20176;-55
2023/03/10 04:18:02;;;;;;;19.07;16.13;;;;;;;11.50;78.39;98712.34;5099251;28;20209;-55
2023/03/10 04:20:29;;;;;;;21.67;16.77;;;;;;;11.42;78.70;98714.06;5097093;28;20191;-55
2023/03/10 04:22:55;;;;;;;19.37;16.40;;;;;;;11.46;78.96;98723.47;5094235;28;20213;-55
2023/03/10 04:25:23;;;;;;;21.97;16.10;;;;;;;11.47;78.56;98732.03;5099539;28;20169;-55
2023/03/10 04:27:50;;;;;;;22.60;17.23;;;;;;;11.55;78.74;98725.19;5090662;28;20219;-54
2023/03/10 04:30:17;;;;;;;21.87;16.77;;;;;;;11.62;77.75;98727.75;5099266;28;20171;-55
2023/03/10 04:32:44;;;;;;;26.60;18.17;;;;;;;11.67;77.95;98720.88;5099282;28;20172;-55
2023/03/10 04:35:13;;;;;;;25.15;17.98;;;;;;;11.74;77.93;98729.50;5102746;28;20512;-55
2023/03/10 04:37:40;;;;;;;20.40;17.07;;;;;;;11.77;77.72;98724.34;5099005;28;20215;-55
2023/03/10 04:40:11;;;;;;;22.90;16.87;;;;;;;11.83;77.38;98726.94;5099143;28;20171;-55
2023/03/10 04:42:39;;;;;;;19.87;16.23;;;;;;;11.85;77.51;98727.78;5099110;28;20171;-54
2023/03/10 04:45:07;;;;;;;24.37;16.07;;;;;;;11.72;77.02;98700.34;5098841;28;20194;-55
2023/03/10 04:47:34;;;;;;;20.33;15.20;;;;;;;11.92;77.19;98737.19;5098867;28;20186;-55
2023/03/10 04:50:01;;;;;;;21.13;16.13;;;;;;;11.93;76.62;98728.63;5099031;28;20181;-55
2023/03/10 04:52:28;;;;;;;21.77;16.83;;;;;;;11.93;76.84;98732.91;5098808;28;20176;-55
2023/03/10 04:54:55;;;;;;;23.00;16.90;;;;;;;11.94;76.86;98725.19;5098219;28;20167;-55
2023/03/10 04:57:23;;;;;;;20.17;16.30;;;;;;;11.97;77.04;98725.19;5078839;28;20177;-55
2023/03/10 04:59:51;;;;;;;30.03;17.90;;;;;;;11.96;76.88;98722.59;5078862;28;20179;-56
2023/03/10 05:02:18;;;;;;;25.20;17.70;;;;;;;11.98;77.30;98726.03;5078681;28;20176;-55
2023/03/10 05:04:45;;;;;;;28.90;18.50;;;;;;;11.95;76.93;98724.31;5078725;28;20202;-54
2023/03/10 05:07:12;;;;;;;30.88;20.40;;;;;;;11.99;77.14;98717.47;5078377;28;20427;-55
2023/03/10 05:09:38;;;;;;;32.17;19.37;;;;;;;12.06;76.28;98725.16;5078642;28;20198;-54
2023/03/10 05:12:06;;;;;;;27.47;18.20;;;;;;;12.12;76.34;98721.72;5109152;28;20183;-55
2023/03/10 05:14:33;;;;;;;27.20;19.00;;;;;;;12.18;76.18;98720.00;5118811;28;20234;-56
2023/03/10 05:17:01;;;;;;;25.47;19.27;;;;;;;12.20;75.75;98718.25;5118681;28;20167;-55
2023/03/10 05:19:28;;;;;;;32.43;21.50;;;;;;;12.25;75.65;98720.84;5118565;28;20206;-55
2023/03/10 05:21:55;;;;;;;27.33;19.13;;;;;;;12.29;75.66;98725.97;5118536;28;20169;-55
2023/03/10 05:24:22;;;;;;;30.80;20.40;;;;;;;12.13;75.75;98695.97;5118682;28;20177;-55
2023/03/10 05:26:48;;;;;;;30.13;20.60;;;;;;;12.32;75.79;98714.78;5118393;28;20201;-56
2023/03/10 05:29:15;;;;;;;33.23;21.77;;;;;;;12.37;75.26;98725.94;5118520;28;20167;-55
2023/03/10 05:31:42;;;;;;;28.70;20.93;;;;;;;12.32;75.66;98730.25;5118547;28;20175;-56
2023/03/10 05:34:10;;;;;;;30.83;21.13;;;;;;;12.28;76.02;98720.81;5118218;28;20181;-54
2023/03/10 05:36:37;;;;;;;33.33;21.90;;;;;;;12.33;75.63;98727.66;5114243;28;20270;-55
2023/03/10 05:39:05;;;;;;;30.70;21.33;;;;;;;12.36;75.51;98726.81;5077966;28;20198;-54
2023/03/10 05:41:32;;;;;;;28.27;21.23;;;;;;;12.31;75.93;98721.66;5077848;28;20176;-54
2023/03/10 05:43:59;;;;;;;33.00;22.47;;;;;;;12.33;75.95;98719.94;5077708;28;20176;-55
2023/03/10 05:46:26;;;;;;;31.70;20.97;;;;;;;12.48;75.36;98718.16;5077693;28;20198;-55
2023/03/10 05:48:53;;;;;;;36.37;22.23;;;;;;;12.51;74.24;98713.88;5083026;28;20213;-55
2023/03/10 05:51:21;;;;;;;37.70;23.27;;;;;;;12.70;74.21;98714.63;5096951;28;20183;-55
2023/03/10 05:53:48;;;;;;;39.70;25.03;;;;;;;12.76;73.79;98709.47;5097142;28;20205;-55
2023/03/10 05:56:17;;;;;;;42.00;26.13;;;;;;;12.89;73.79;98711.97;5096741;28;20429;-54
2023/03/10 05:58:45;;;;;;;38.73;22.83;;;;;;;13.06;72.77;98714.44;5095822;28;20221;-54
2023/03/10 06:01:12;;;;;;;34.33;23.20;;;;;;;13.16;71.85;98710.13;5077462;28;20216;-55
2023/03/10 06:03:39;;;;;;;29.13;22.87;;;;;;;13.20;71.18;98699.75;5077351;28;20175;-54
2023/03/10 06:06:07;;;;;;;40.17;27.73;;;;;;;13.02;71.44;98702.41;5077186;28;20218;-54
2023/03/10 06:08:35;;;;;;;40.57;26.97;;;;;;;12.79;72.28;98699.13;5077376;28;20184;-54
2023/03/10 06:11:03;;;;;;;44.78;31.75;;;;;;;12.79;73.01;98701.72;5076845;28;20415;-55
2023/03/10 06:13:30;;;;;;;40.83;29.93;;;;;;;12.63;72.85;98682.03;5077123;28;20172;-54
2023/03/10 06:15:59;;;;;;;43.37;28.83;;;;;;;12.92;72.54;98699.06;5097387;28;20214;-54
2023/03/10 06:18:27;;;;;;;45.17;31.07;;;;;;;13.06;72.52;98687.78;5096935;28;20198;-55
2023/03/10 06:20:55;;;;;;;49.83;28.57;;;;;;;13.11;71.51;98698.97;5087899;28;20184;-55
2023/03/10 06:23:22;;;;;;;34.03;26.20;;;;;;;13.02;71.98;98690.38;5087516;28;20185;-55
2023/03/10 06:25:58;;;;;;;46.93;27.57;;;;;;;13.21;71.76;98698.88;5088386;28;20192;-54
2023/03/10 06:28:31;;;;;;;43.60;26.43;;;;;;;13.33;71.67;98693.63;5096268;28;20202;-56
2023/03/10 06:30:59;;;;;;;36.07;23.37;;;;;;;13.40;70.56;98685.00;5085338;28;20168;-55
2023/03/10 06:33:26;;;;;;;46.03;25.77;;;;;;;13.43;70.68;98697.84;5097178;28;20186;-55
2023/03/10 06:35:54;;;;;;;51.60;26.10;;;;;;;13.43;70.89;98695.28;5100970;28;20185;-55
2023/03/10 06:38:21;;;;;;;39.80;26.53;;;;;;;13.40;70.43;98679.84;5096912;28;20203;-55
2023/03/10 06:40:49;;;;;;;70.93;36.33;;;;;;;13.19;71.00;98695.47;5096937;28;20197;-55
2023/03/10 06:43:17;;;;;;;57.60;32.00;;;;;;;13.17;72.12;98692.03;5096865;28;20188;-54
2023/03/10 06:45:45;;;;;;;55.13;32.40;;;;;;;12.99;72.63;98692.97;5096924;28;20187;-54
2023/03/10 06:48:12;;;;;;;52.10;32.03;;;;;;;13.11;72.12;98694.66;5096864;28;20183;-55
2023/03/10 06:50:41;;;;;;;47.57;30.93;;;;;;;13.26;71.71;98694.56;5096878;28;20172;-54
2023/03/10 06:53:08;;;;;;;73.20;33.40;;;;;;;13.42;71.18;98692.72;5096708;28;20179;-55
2023/03/10 06:55:35;;;;;;;82.30;34.43;;;;;;;13.57;70.00;98692.56;5096744;28;20222;-55
2023/03/10 06:58:01;;;;;;;62.90;39.13;;;;;;;13.69;69.02;98684.75;5096249;28;20175;-55
2023/03/10 07:00:29;;;;;;;74.30;44.77;;;;;;;13.81;68.47;98686.34;5096753;28;20219;-55
2023/03/10 07:02:56;;;;;;;77.07;46.87;;;;;;;13.80;68.28;98684.63;5096095;28;20177;-55
2023/03/10 07:05:25;;;;;;;69.73;45.77;;;;;;;13.44;68.22;98647.09;5095491;28;20197;-54
2023/03/10 07:07:53;;;;;;;77.10;52.83;;;;;;;13.56;68.94;98683.13;5096903;28;20195;-55
2023/03/10 07:10:20;;;;;;;77.57;49.97;;;;;;;13.54;69.31;98671.97;5096834;28;20231;-54
2023/03/10 07:12:53;;;;;;;78.00;46.97;;;;;;;13.65;68.73;98669.31;5096874;28;20171;-54
2023/03/10 07:15:20;;;;;;;73.70;47.87;;;;;;;13.60;68.20;98670.19;5096050;28;20417;-54
2023/03/10 07:17:48;;;;;;;54.10;40.37;;;;;;;13.90;67.34;98669.03;5098299;28;20183;-55
2023/03/10 07:20:15;;;;;;;58.00;35.33;;;;;;;14.01;66.23;98674.06;5100400;28;20207;-55
2023/03/10 07:22:43;;;;;;;66.17;43.67;;;;;;;14.19;65.09;98669.59;5100353;28;20234;-55
2023/03/10 07:25:10;;;;;;;81.80;50.60;;;;;;;14.07;65.35;98674.88;5100378;28;20227;-55
2023/03/10 07:27:37;;;;;;;82.68;61.38;;;;;;;14.19;64.51;98673.88;5099244;28;20514;-54
2023/03/10 07:30:05;;;;;;;79.63;57.47;;;;;;;14.36;63.87;98687.50;5100104;28;20182;-54
2023/03/10 07:32:31;;;;;;;95.73;61.60;;;;;;;14.45;63.62;98682.22;5100162;28;20217;-54
2023/03/10 07:35:00;;;;;;;78.20;54.73;;;;;;;14.57;63.58;98684.66;5100352;28;20194;-55
2023/03/10 07:37:27;;;;;;;53.87;38.33;;;;;;;14.61;63.62;98670.78;5100251;28;20169;-55
2023/03/10 07:39:54;;;;;;;35.50;23.67;;;;;;;14.68;62.18;98674.16;5100051;28;20260;-59
2023/03/10 07:42:22;;;;;;;40.33;28.50;;;;;;;14.88;61.94;98687.69;5099558;28;20451;-55
2023/03/10 08:11:33;;;;;;;29.90;21.17;;;;;;;15.63;59.76;98677.06;5087750;28;20265;-55
2023/03/10 08:14:00;;;;;;;33.30;23.77;;;;;;;15.76;60.21;98679.41;5096637;28;20455;-55
2023/03/10 08:16:27;;;;;;;28.40;21.03;;;;;;;15.85;59.03;98676.66;5096935;28;20207;-54
2023/03/10 08:18:54;;;;;;;26.77;21.03;;;;;;;16.03;58.77;98687.56;5098938;28;20200;-54
2023/03/10 08:21:21;;;;;;;25.80;20.57;;;;;;;16.05;59.18;98659.88;5098757;28;20179;-56
2023/03/10 08:23:48;;;;;;;34.33;20.63;;;;;;;16.06;59.34;98665.03;5098135;28;20191;-54
2023/03/10 08:26:18;;;;;;;21.23;17.40;;;;;;;15.89;59.47;98672.28;5098901;28;20172;-54
2023/03/10 08:28:47;;;;;;;23.00;20.10;;;;;;;15.84;60.08;98669.78;5097899;28;20206;-54
2023/03/10 08:31:16;;;;;;;36.63;18.37;;;;;;;15.92;59.85;98662.72;5098445;28;20171;-56
2023/03/10 08:33:44;;;;;;;23.80;16.20;;;;;;;16.04;58.73;98665.97;5098492;28;20176;-55
2023/03/10 08:36:13;;;;;;;21.73;16.37;;;;;;;16.00;59.00;98665.16;5098429;28;20183;-55
2023/03/10 08:38:40;;;;;;;22.07;16.77;;;;;;;15.98;58.83;98655.72;5098311;28;20199;-55
2023/03/10 08:41:16;;;;;;;21.97;16.03;;;;;;;16.24;58.65;98663.81;5098386;28;20197;-55
2023/03/10 08:43:43;;;;;;;21.40;15.83;;;;;;;16.17;59.62;98660.50;5098454;28;20167;-55
2023/03/10 08:46:12;;;;;;;18.77;15.53;;;;;;;16.26;59.61;98654.28;5098572;28;20178;-55
2023/03/10 08:48:39;;;;;;;18.50;15.23;;;;;;;16.38;58.87;98648.84;5098094;28;20317;-55
2023/03/10 08:51:07;;;;;;;16.93;13.90;;;;;;;16.51;57.51;98638.19;5098323;28;20172;-55
2023/03/10 08:53:36;;;;;;;17.40;13.87;;;;;;;16.75;56.44;98636.84;5098041;28;20236;-54
2023/03/10 08:56:04;;;;;;;13.17;10.73;;;;;;;16.84;53.07;98634.03;5098134;28;20176;-56
2023/03/10 08:58:31;;;;;;;15.20;13.20;;;;;;;16.88;53.05;98629.63;5097969;28;20221;-55
2023/03/10 09:00:58;;;;;;;18.10;14.88;;;;;;;16.89;53.06;98628.75;5097483;28;20414;-54
2023/03/10 09:03:26;;;;;;;18.67;12.23;;;;;;;16.89;52.39;98629.59;5097695;28;20206;-55
2023/03/10 09:05:54;;;;;;;15.57;11.50;;;;;;;16.98;52.04;98619.00;5094751;28;20437;-56
2023/03/10 09:08:24;;;;;;;15.27;11.70;;;;;;;16.90;52.05;98594.97;5093994;28;20190;-55
2023/03/10 09:10:51;;;;;;;14.13;11.13;;;;;;;17.25;51.79;98627.03;5095756;28;20177;-55
2023/03/10 09:13:19;;;;;;;12.10;9.53;;;;;;;17.28;52.38;98620.00;5096755;28;20188;-56
2023/03/10 09:15:46;;;;;;;12.77;10.33;;;;;;;17.32;52.36;98607.81;5097275;28;20168;-55
2023/03/10 09:18:15;;;;;;;9.97;8.97;;;;;;;17.23;52.27;98595.91;5096686;28;20182;-55
2023/03/10 09:20:45;;;;;;;22.23;14.57;;;;;;;17.28;52.78;98603.59;5098630;28;20202;-55
2023/03/10 09:23:14;;;;;;;11.60;9.93;;;;;;;17.25;53.01;98598.47;5062720;28;20198;-60
2023/03/10 09:25:42;;;;;;;14.33;9.60;;;;;;;17.26;52.99;98593.22;5062654;28;20197;-55
2023/03/10 09:28:10;;;;;;;14.33;10.23;;;;;;;17.37;52.47;98587.75;5084535;28;20217;-55
2023/03/10 09:30:39;;;;;;;13.40;9.87;;;;;;;17.24;51.68;98588.97;5096758;28;20178;-55
2023/03/10 09:33:07;;;;;;;12.20;9.17;;;;;;;17.30;50.98;98584.50;5097781;28;20179;-56
2023/03/10 09:35:35;;;;;;;13.47;9.47;;;;;;;17.32;50.52;98581.84;5117464;28;20175;-56
2023/03/10 09:38:03;;;;;;;18.77;13.33;;;;;;;17.42;51.13;98578.97;5117361;28;20175;-55
2023/03/10 09:40:31;;;;;;;11.67;9.43;;;;;;;17.62;50.90;98570.69;5117018;28;20224;-56
2023/03/10 09:43:01;;;;;;;16.03;12.20;;;;;;;17.62;49.91;98560.31;5117303;28;20193;-55
2023/03/10 09:45:38;;;;;;;17.70;9.53;;;;;;;17.61;49.93;98555.97;5107529;28;20215;-56
2023/03/10 09:48:14;;;;;;;10.77;8.50;;;;;;;17.46;50.55;98551.19;5097141;28;20180;-55
2023/03/10 09:50:45;;;;;;;10.27;9.07;;;;;;;17.53;51.02;98545.81;5096436;28;20187;-55
2023/03/10 09:53:55;;;;;;;14.87;9.90;;;;;;;17.21;52.25;98544.91;5100582;28;20175;-55
2023/03/10 09:56:28;;;;;;;17.37;9.80;;;;;;;17.30;52.96;98539.50;5065050;28;20184;-55
2023/03/10 09:58:59;;;;;;;12.00;9.57;;;;;;;17.06;53.44;98530.56;5092542;28;20447;-55
2023/03/10 10:01:29;;;;;;;12.00;10.73;;;;;;;17.13;53.91;98526.09;5095589;28;20191;-56
2023/03/10 10:04:00;;;;;;;11.93;9.63;;;;;;;17.17;53.81;98509.56;5095428;28;20184;-56
2023/03/10 10:06:30;;;;;;;11.80;10.47;;;;;;;17.06;53.62;98468.28;5095591;28;20192;-55
2023/03/10 10:09:01;;;;;;;13.00;10.60;;;;;;;17.38;53.92;98511.59;5095820;28;20167;-55
2023/03/10 10:11:28;;;;;;;13.23;9.90;;;;;;;17.63;53.76;98512.66;5095811;28;20199;-54
2023/03/10 10:14:16;;;;;;;11.50;10.00;;;;;;;17.80;53.47;98507.81;5095694;28;20194;-54
2023/03/10 10:16:50;;;;;;;12.27;9.77;;;;;;;17.86;53.13;98505.03;5093056;28;20185;-54
2023/03/10 10:19:21;;;;;;;13.73;10.80;;;;;;;17.94;53.34;98502.22;5093789;28;20192;-54
2023/03/10 10:21:54;;;;;;;13.97;8.90;;;;;;;18.10;52.90;98487.91;5095634;28;20187;-54
2023/03/10 10:24:22;;;;;;;14.40;9.73;;;;;;;18.09;52.67;98481.84;5095910;28;20168;-55
2023/03/10 10:26:49;;;;;;;12.83;9.50;;;;;;;18.12;53.26;98480.91;5095788;28;20231;-55
2023/03/10 10:29:19;;;;;;;9.13;8.10;;;;;;;18.44;52.39;98478.16;5093108;28;20210;-56
2023/03/10 10:32:04;;;;;;;9.47;7.37;;;;;;;18.55;51.40;98478.69;5095005;28;20221;-55
2023/03/10 10:34:31;;;;;;;15.90;6.53;;;;;;;18.51;50.52;98464.09;5093053;28;20168;-55
2023/03/10 10:36:59;;;;;;;8.83;7.43;;;;;;;18.62;51.04;98454.16;5091351;28;20225;-55
2023/03/10 10:39:31;;;;;;;8.47;7.17;;;;;;;18.64;50.64;98448.94;5089111;28;20199;-55
2023/03/10 10:42:13;;;;;;;10.93;7.00;;;;;;;18.83;50.32;98437.00;5095338;28;20227;-55
2023/03/10 10:44:41;;;;;;;10.47;7.07;;;;;;;18.82;50.52;98430.94;5096227;28;20187;-56
2023/03/10 10:47:24;;;;;;;7.45;6.50;;;;;;;19.05;50.22;98416.28;5094657;28;20456;-55
2023/03/10 10:49:51;;;;;;;10.17;6.37;;;;;;;19.30;49.13;98401.50;5096439;28;20206;-55
2023/03/10 10:52:23;;;;;;;9.43;6.00;;;;;;;19.42;48.68;98395.84;5096772;28;20302;-56
2023/03/10 10:54:56;;;;;;;8.13;6.73;;;;;;;19.76;48.00;98385.88;5100039;28;20182;-56
2023/03/10 10:57:25;;;;;;;7.50;5.87;;;;;;;19.78;48.38;98367.56;5099905;28;20178;-56
2023/03/10 10:59:52;;;;;;;7.03;6.17;;;;;;;19.88;48.26;98363.72;5100019;28;20259;-56
2023/03/10 11:02:23;;;;;;;7.93;5.63;;;;;;;19.69;48.16;98289.75;5099908;28;20179;-56
2023/03/10 11:04:50;;;;;;;8.03;5.67;;;;;;;19.93;48.39;98352.19;5099741;28;20171;-56
2023/03/10 11:07:23;;;;;;;6.60;5.80;;;;;;;20.07;48.51;98337.75;5098761;28;20452;-57
2023/03/10 11:09:51;;;;;;;7.67;5.80;;;;;;;20.25;48.24;98334.41;5099748;28;20175;-56
2023/03/10 11:12:24;;;;;;;10.50;5.03;;;;;;;20.04;48.23;98297.00;5099335;28;20199;-56
2023/03/10 11:15:05;;;;;;;5.27;4.77;;;;;;;20.29;47.99;98318.59;5099503;28;20208;-56
2023/03/10 11:17:39;;;;;;;7.00;5.60;;;;;;;20.32;47.77;98308.03;5097811;28;20172;-55
2023/03/10 11:20:17;;;;;;;12.80;5.87;;;;;;;20.40;47.84;98303.34;5081942;28;20195;-55
2023/03/10 11:22:47;;;;;;;6.10;5.07;;;;;;;20.45;47.40;98296.16;5098286;28;20179;-56
2023/03/10 11:28:48;;;;;;;6.67;5.23;;;;;;;20.77;46.04;98291.28;5093672;28;20210;-55
2023/03/10 11:31:26;;;;;;;7.57;4.73;;;;;;;20.61;44.98;98283.28;5079624;28;20192;-56
2023/03/10 11:34:04;;;;;;;6.33;5.50;;;;;;;20.65;45.74;98277.03;5079452;28;20172;-55
2023/03/10 11:36:41;;;;;;;5.53;4.50;;;;;;;20.75;44.47;98264.41;5082845;28;20306;-57
2023/03/10 11:39:21;;;;;;;5.07;4.43;;;;;;;20.75;44.19;98267.03;5097612;28;20286;-56
2023/03/10 11:41:52;;;;;;;6.70;5.00;;;;;;;20.86;44.38;98262.19;5091786;28;20184;-55
2023/03/10 11:44:28;;;;;;;6.73;5.47;;;;;;;20.81;44.18;98258.94;5111011;28;20190;-55
2023/03/10 11:47:00;;;;;;;9.13;5.13;;;;;;;20.75;44.50;98253.97;5119273;28;20171;-55
2023/03/10 11:49:31;;;;;;;9.77;6.03;;;;;;;20.80;44.48;98252.84;5119334;28;20187;-56
2023/03/10 11:52:01;;;;;;;6.23;5.20;;;;;;;20.52;45.09;98237.56;5119430;28;20189;-55
2023/03/10 11:54:33;;;;;;;7.20;5.80;;;;;;;20.47;45.58;98242.13;5119176;28;20235;-55
2023/03/10 11:57:03;;;;;;;8.03;4.80;;;;;;;20.29;45.99;98234.25;5118773;28;20171;-54
2023/03/10 11:59:35;;;;;;;8.67;4.83;;;;;;;20.23;46.34;98240.56;5117452;28;20167;-55